sensor_id;sensor_type;location;lat;lon;timestamp;P1;durP1;ratioP1;P2;durP2;ratioP2
18580;SDS011;9420;50.876;7.012;2023-05-02T00:01:54;31.70;;;24.67;;
18580;SDS011;9420;50.876;7.012;2023-05-02T00:04:21;32.10;;;24.47;;
18580;SDS011;9420;50.876;7.012;2023-05-02T00:06:50;31.40;;;24.20;;
18580;SDS011;9420;50.876;7.012;2023-05-02T00:09:18;32.60;;;24.73;;
18580;SDS011;9420;50.876;7.012;2023-05-02T00:11:45;33.27;;;23.97;;
18580;SDS011;9420;50.876;7.012;2023-05-02T00:14:12;33.03;;;25.03;;
18580;SDS011;9420;50.876;7.012;2023-05-02T00:16:41;32.33;;;24.67;;
18580;SDS011;9420;50.876;7.012;2023-05-02T00:19:08;34.13;;;24.87;;
18580;SDS011;9420;50.876;7.012;2023-05-02T00:21:35;31.63;;;23.73;;
18580;SDS011;9420;50.876;7.012;2023-05-02T00:24:03;33.90;;;25.53;;
18580;SDS011;9420;50.876;7.012;2023-05-02T00:26:31;38.07;;;25.20;;
18580;SDS011;9420;50.876;7.012;2023-05-02T00:28:58;33.70;;;24.90;;
18580;SDS011;9420;50.876;7.012;2023-05-02T00:31:26;35.90;;;25.23;;
18580;SDS011;9420;50.876;7.012;2023-05-02T00:33:54;36.73;;;26.47;;
18580;SDS011;9420;50.876;7.012;2023-05-02T00:36:22;41.27;;;27.13;;
18580;SDS011;9420;50.876;7.012;2023-05-02T00:38:49;38.63;;;27.17;;
18580;SDS011;9420;50.876;7.012;2023-05-02T00:41:16;39.53;;;28.37;;
18580;SDS011;9420;50.876;7.012;2023-05-02T00:43:43;40.70;;;27.40;;
18580;SDS011;9420;50.876;7.012;2023-05-02T00:46:10;39.13;;;27.50;;
18580;SDS011;9420;50.876;7.012;2023-05-02T00:48:37;40.87;;;29.50;;
18580;SDS011;9420;50.876;7.012;2023-05-02T00:51:06;38.47;;;28.00;;
18580;SDS011;9420;50.876;7.012;2023-05-02T00:53:36;46.27;;;28.60;;
18580;SDS011;9420;50.876;7.012;2023-05-02T00:56:04;42.97;;;28.77;;
18580;SDS011;9420;50.876;7.012;2023-05-02T00:58:32;42.90;;;28.40;;
18580;SDS011;9420;50.876;7.012;2023-05-02T01:01:03;45.60;;;30.30;;
18580;SDS011;9420;50.876;7.012;2023-05-02T01:03:51;46.40;;;29.43;;
18580;SDS011;9420;50.876;7.012;2023-05-02T01:06:38;44.43;;;30.30;;
18580;SDS011;9420;50.876;7.012;2023-05-02T01:09:25;45.43;;;29.13;;
18580;SDS011;9420;50.876;7.012;2023-05-02T01:12:09;47.70;;;30.93;;
18580;SDS011;9420;50.876;7.012;2023-05-02T01:14:52;45.73;;;29.87;;
18580;SDS011;9420;50.876;7.012;2023-05-02T01:17:23;48.63;;;30.87;;
18580;SDS011;9420;50.876;7.012;2023-05-02T01:19:57;41.47;;;28.70;;
18580;SDS011;9420;50.876;7.012;2023-05-02T01:22:30;38.33;;;28.53;;
18580;SDS011;9420;50.876;7.012;2023-05-02T01:25:01;40.60;;;27.60;;
18580;SDS011;9420;50.876;7.012;2023-05-02T01:27:50;44.73;;;29.23;;
18580;SDS011;9420;50.876;7.012;2023-05-02T01:30:38;39.47;;;26.90;;
18580;SDS011;9420;50.876;7.012;2023-05-02T01:33:10;46.70;;;30.20;;
18580;SDS011;9420;50.876;7.012;2023-05-02T01:35:40;48.70;;;30.63;;
18580;SDS011;9420;50.876;7.012;2023-05-02T01:38:11;48.17;;;30.70;;
18580;SDS011;9420;50.876;7.012;2023-05-02T01:40:42;46.20;;;30.27;;
18580;SDS011;9420;50.876;7.012;2023-05-02T01:43:12;49.70;;;31.57;;
18580;SDS011;9420;50.876;7.012;2023-05-02T01:45:43;50.23;;;30.90;;
18580;SDS011;9420;50.876;7.012;2023-05-02T01:48:13;50.03;;;31.73;;
18580;SDS011;9420;50.876;7.012;2023-05-02T01:50:44;52.17;;;33.27;;
18580;SDS011;9420;50.876;7.012;2023-05-02T01:53:14;51.57;;;32.90;;
18580;SDS011;9420;50.876;7.012;2023-05-02T01:55:43;56.33;;;34.10;;
18580;SDS011;9420;50.876;7.012;2023-05-02T01:58:12;55.43;;;34.77;;
18580;SDS011;9420;50.876;7.012;2023-05-02T02:00:45;60.77;;;35.03;;
18580;SDS011;9420;50.876;7.012;2023-05-02T02:03:14;60.47;;;38.73;;
18580;SDS011;9420;50.876;7.012;2023-05-02T02:05:44;61.53;;;37.63;;
18580;SDS011;9420;50.876;7.012;2023-05-02T02:08:13;64.07;;;37.20;;
18580;SDS011;9420;50.876;7.012;2023-05-02T02:10:42;62.17;;;38.47;;
18580;SDS011;9420;50.876;7.012;2023-05-02T02:13:18;64.07;;;37.17;;
18580;SDS011;9420;50.876;7.012;2023-05-02T02:15:58;67.00;;;39.40;;
18580;SDS011;9420;50.876;7.012;2023-05-02T02:18:31;75.00;;;40.23;;
18580;SDS011;9420;50.876;7.012;2023-05-02T02:21:03;66.17;;;38.30;;
18580;SDS011;9420;50.876;7.012;2023-05-02T02:23:36;72.43;;;40.97;;
18580;SDS011;9420;50.876;7.012;2023-05-02T02:26:07;67.40;;;39.27;;
18580;SDS011;9420;50.876;7.012;2023-05-02T02:28:35;66.13;;;39.43;;
18580;SDS011;9420;50.876;7.012;2023-05-02T02:31:04;71.73;;;39.90;;
18580;SDS011;9420;50.876;7.012;2023-05-02T02:33:31;68.13;;;37.97;;
18580;SDS011;9420;50.876;7.012;2023-05-02T02:36:01;65.73;;;36.43;;
18580;SDS011;9420;50.876;7.012;2023-05-02T02:38:38;67.40;;;38.17;;
18580;SDS011;9420;50.876;7.012;2023-05-02T02:41:13;63.23;;;35.50;;
18580;SDS011;9420;50.876;7.012;2023-05-02T02:43:51;58.37;;;35.37;;
18580;SDS011;9420;50.876;7.012;2023-05-02T02:46:33;63.90;;;35.70;;
18580;SDS011;9420;50.876;7.012;2023-05-02T02:49:14;61.43;;;36.10;;
18580;SDS011;9420;50.876;7.012;2023-05-02T02:51:57;65.07;;;37.10;;
18580;SDS011;9420;50.876;7.012;2023-05-02T02:54:37;58.93;;;34.53;;
18580;SDS011;9420;50.876;7.012;2023-05-02T02:57:14;54.03;;;30.83;;
18580;SDS011;9420;50.876;7.012;2023-05-02T02:59:49;59.27;;;33.23;;
18580;SDS011;9420;50.876;7.012;2023-05-02T03:02:27;59.63;;;33.90;;
18580;SDS011;9420;50.876;7.012;2023-05-02T03:04:57;55.93;;;32.17;;
18580;SDS011;9420;50.876;7.012;2023-05-02T03:07:27;51.70;;;29.70;;
18580;SDS011;9420;50.876;7.012;2023-05-02T03:09:55;62.03;;;30.87;;
18580;SDS011;9420;50.876;7.012;2023-05-02T03:12:22;50.17;;;26.30;;
18580;SDS011;9420;50.876;7.012;2023-05-02T03:14:49;50.50;;;26.53;;
18580;SDS011;9420;50.876;7.012;2023-05-02T03:17:16;51.20;;;28.50;;
18580;SDS011;9420;50.876;7.012;2023-05-02T03:19:45;52.33;;;29.00;;
18580;SDS011;9420;50.876;7.012;2023-05-02T03:22:12;49.67;;;27.77;;
18580;SDS011;9420;50.876;7.012;2023-05-02T03:24:39;46.13;;;27.97;;
18580;SDS011;9420;50.876;7.012;2023-05-02T03:27:06;52.10;;;29.13;;
18580;SDS011;9420;50.876;7.012;2023-05-02T03:29:33;55.37;;;28.80;;
18580;SDS011;9420;50.876;7.012;2023-05-02T03:32:00;50.10;;;30.37;;
18580;SDS011;9420;50.876;7.012;2023-05-02T03:34:27;51.50;;;29.30;;
18580;SDS011;9420;50.876;7.012;2023-05-02T03:36:56;52.23;;;30.87;;
18580;SDS011;9420;50.876;7.012;2023-05-02T03:39:23;54.63;;;31.17;;
18580;SDS011;9420;50.876;7.012;2023-05-02T03:41:50;54.30;;;30.23;;
18580;SDS011;9420;50.876;7.012;2023-05-02T03:44:18;56.67;;;31.07;;
18580;SDS011;9420;50.876;7.012;2023-05-02T03:46:45;47.73;;;27.20;;
18580;SDS011;9420;50.876;7.012;2023-05-02T03:49:13;54.27;;;30.57;;
18580;SDS011;9420;50.876;7.012;2023-05-02T03:51:40;53.47;;;30.00;;
18580;SDS011;9420;50.876;7.012;2023-05-02T03:54:08;50.53;;;28.77;;
18580;SDS011;9420;50.876;7.012;2023-05-02T03:56:36;54.17;;;31.17;;
18580;SDS011;9420;50.876;7.012;2023-05-02T03:59:03;57.80;;;30.47;;
18580;SDS011;9420;50.876;7.012;2023-05-02T04:01:30;52.33;;;29.20;;
18580;SDS011;9420;50.876;7.012;2023-05-02T04:03:58;53.43;;;29.40;;
18580;SDS011;9420;50.876;7.012;2023-05-02T04:06:25;50.93;;;31.20;;
18580;SDS011;9420;50.876;7.012;2023-05-02T04:08:53;52.40;;;30.23;;
18580;SDS011;9420;50.876;7.012;2023-05-02T04:11:21;58.40;;;30.57;;
18580;SDS011;9420;50.876;7.012;2023-05-02T04:13:51;56.47;;;32.17;;
18580;SDS011;9420;50.876;7.012;2023-05-02T04:16:18;57.30;;;31.37;;
18580;SDS011;9420;50.876;7.012;2023-05-02T04:18:45;52.40;;;30.70;;
18580;SDS011;9420;50.876;7.012;2023-05-02T04:21:12;56.30;;;33.03;;
18580;SDS011;9420;50.876;7.012;2023-05-02T04:23:39;62.67;;;31.03;;
18580;SDS011;9420;50.876;7.012;2023-05-02T04:26:06;55.37;;;32.93;;
18580;SDS011;9420;50.876;7.012;2023-05-02T04:28:35;56.20;;;33.47;;
18580;SDS011;9420;50.876;7.012;2023-05-02T04:31:02;54.27;;;31.30;;
18580;SDS011;9420;50.876;7.012;2023-05-02T04:33:29;57.37;;;32.77;;
18580;SDS011;9420;50.876;7.012;2023-05-02T04:35:56;58.60;;;36.00;;
18580;SDS011;9420;50.876;7.012;2023-05-02T04:38:23;59.00;;;32.10;;
18580;SDS011;9420;50.876;7.012;2023-05-02T04:40:51;67.33;;;34.67;;
18580;SDS011;9420;50.876;7.012;2023-05-02T04:43:18;61.43;;;33.20;;
18580;SDS011;9420;50.876;7.012;2023-05-02T04:45:47;64.87;;;35.23;;
18580;SDS011;9420;50.876;7.012;2023-05-02T04:48:15;57.87;;;32.30;;
18580;SDS011;9420;50.876;7.012;2023-05-02T04:50:43;59.83;;;32.20;;
18580;SDS011;9420;50.876;7.012;2023-05-02T04:53:11;57.90;;;31.70;;
18580;SDS011;9420;50.876;7.012;2023-05-02T04:55:38;57.17;;;32.40;;
18580;SDS011;9420;50.876;7.012;2023-05-02T04:58:07;63.43;;;33.37;;
18580;SDS011;9420;50.876;7.012;2023-05-02T05:00:34;61.70;;;32.97;;
18580;SDS011;9420;50.876;7.012;2023-05-02T05:03:02;58.33;;;33.17;;
18580;SDS011;9420;50.876;7.012;2023-05-02T05:05:30;64.30;;;33.43;;
18580;SDS011;9420;50.876;7.012;2023-05-02T05:07:57;62.80;;;32.63;;
18580;SDS011;9420;50.876;7.012;2023-05-02T05:10:24;57.37;;;32.97;;
18580;SDS011;9420;50.876;7.012;2023-05-02T05:12:51;64.97;;;34.23;;
18580;SDS011;9420;50.876;7.012;2023-05-02T05:15:19;59.67;;;32.33;;
18580;SDS011;9420;50.876;7.012;2023-05-02T05:17:48;61.80;;;33.63;;
18580;SDS011;9420;50.876;7.012;2023-05-02T05:20:16;66.27;;;36.53;;
18580;SDS011;9420;50.876;7.012;2023-05-02T05:22:43;58.90;;;31.80;;
18580;SDS011;9420;50.876;7.012;2023-05-02T05:25:11;58.37;;;33.27;;
18580;SDS011;9420;50.876;7.012;2023-05-02T05:27:38;61.20;;;33.93;;
18580;SDS011;9420;50.876;7.012;2023-05-02T05:30:05;61.83;;;31.87;;
18580;SDS011;9420;50.876;7.012;2023-05-02T05:32:34;55.20;;;31.60;;
18580;SDS011;9420;50.876;7.012;2023-05-02T05:35:01;50.63;;;29.83;;
18580;SDS011;9420;50.876;7.012;2023-05-02T05:37:31;59.63;;;30.33;;
18580;SDS011;9420;50.876;7.012;2023-05-02T05:39:58;51.23;;;30.67;;
18580;SDS011;9420;50.876;7.012;2023-05-02T05:42:26;50.27;;;29.93;;
18580;SDS011;9420;50.876;7.012;2023-05-02T05:44:55;56.40;;;29.67;;
18580;SDS011;9420;50.876;7.012;2023-05-02T05:47:22;51.73;;;28.10;;
18580;SDS011;9420;50.876;7.012;2023-05-02T05:49:51;47.87;;;29.13;;
18580;SDS011;9420;50.876;7.012;2023-05-02T05:52:19;50.23;;;30.03;;
18580;SDS011;9420;50.876;7.012;2023-05-02T05:54:47;48.67;;;29.10;;
18580;SDS011;9420;50.876;7.012;2023-05-02T05:57:14;50.70;;;27.13;;
18580;SDS011;9420;50.876;7.012;2023-05-02T05:59:41;52.37;;;28.40;;
18580;SDS011;9420;50.876;7.012;2023-05-02T06:02:09;47.33;;;26.60;;
18580;SDS011;9420;50.876;7.012;2023-05-02T06:04:36;48.87;;;26.80;;
18580;SDS011;9420;50.876;7.012;2023-05-02T06:07:03;42.57;;;25.40;;
18580;SDS011;9420;50.876;7.012;2023-05-02T06:09:30;49.53;;;27.03;;
18580;SDS011;9420;50.876;7.012;2023-05-02T06:11:59;42.37;;;24.53;;
18580;SDS011;9420;50.876;7.012;2023-05-02T06:14:27;40.07;;;24.00;;
18580;SDS011;9420;50.876;7.012;2023-05-02T06:16:54;42.67;;;25.97;;
18580;SDS011;9420;50.876;7.012;2023-05-02T06:19:24;40.07;;;23.93;;
18580;SDS011;9420;50.876;7.012;2023-05-02T06:21:51;34.03;;;21.57;;
18580;SDS011;9420;50.876;7.012;2023-05-02T06:24:18;39.13;;;21.17;;
18580;SDS011;9420;50.876;7.012;2023-05-02T06:26:45;37.07;;;21.83;;
18580;SDS011;9420;50.876;7.012;2023-05-02T06:29:13;41.30;;;22.50;;
18580;SDS011;9420;50.876;7.012;2023-05-02T06:31:40;36.40;;;21.33;;
18580;SDS011;9420;50.876;7.012;2023-05-02T06:34:07;42.10;;;21.53;;
18580;SDS011;9420;50.876;7.012;2023-05-02T06:36:34;35.27;;;20.30;;
18580;SDS011;9420;50.876;7.012;2023-05-02T06:39:01;32.67;;;20.17;;
18580;SDS011;9420;50.876;7.012;2023-05-02T06:41:29;33.97;;;18.37;;
18580;SDS011;9420;50.876;7.012;2023-05-02T06:43:58;30.40;;;17.67;;
18580;SDS011;9420;50.876;7.012;2023-05-02T06:46:28;31.87;;;17.77;;
18580;SDS011;9420;50.876;7.012;2023-05-02T06:48:56;32.77;;;17.53;;
18580;SDS011;9420;50.876;7.012;2023-05-02T06:51:23;30.13;;;18.17;;
18580;SDS011;9420;50.876;7.012;2023-05-02T06:53:50;36.43;;;19.33;;
18580;SDS011;9420;50.876;7.012;2023-05-02T06:56:17;32.90;;;19.37;;
18580;SDS011;9420;50.876;7.012;2023-05-02T06:58:44;34.73;;;21.23;;
18580;SDS011;9420;50.876;7.012;2023-05-02T07:01:11;35.53;;;20.57;;
18580;SDS011;9420;50.876;7.012;2023-05-02T07:03:40;36.63;;;20.73;;
18580;SDS011;9420;50.876;7.012;2023-05-02T07:06:07;33.53;;;19.30;;
18580;SDS011;9420;50.876;7.012;2023-05-02T07:08:34;35.33;;;20.23;;
18580;SDS011;9420;50.876;7.012;2023-05-02T07:11:02;38.17;;;19.57;;
18580;SDS011;9420;50.876;7.012;2023-05-02T07:13:30;35.70;;;19.90;;
18580;SDS011;9420;50.876;7.012;2023-05-02T07:15:57;37.43;;;20.43;;
18580;SDS011;9420;50.876;7.012;2023-05-02T07:18:24;43.23;;;20.63;;
18580;SDS011;9420;50.876;7.012;2023-05-02T07:20:53;32.27;;;20.10;;
18580;SDS011;9420;50.876;7.012;2023-05-02T07:23:20;33.97;;;19.17;;
18580;SDS011;9420;50.876;7.012;2023-05-02T07:25:47;34.47;;;18.20;;
18580;SDS011;9420;50.876;7.012;2023-05-02T07:28:14;31.97;;;18.63;;
18580;SDS011;9420;50.876;7.012;2023-05-02T07:30:41;33.40;;;19.67;;
18580;SDS011;9420;50.876;7.012;2023-05-02T07:33:08;32.37;;;18.70;;
18580;SDS011;9420;50.876;7.012;2023-05-02T07:35:35;33.80;;;17.17;;
18580;SDS011;9420;50.876;7.012;2023-05-02T07:38:04;29.40;;;18.03;;
18580;SDS011;9420;50.876;7.012;2023-05-02T07:40:31;31.50;;;18.77;;
18580;SDS011;9420;50.876;7.012;2023-05-02T07:42:59;31.77;;;17.83;;
18580;SDS011;9420;50.876;7.012;2023-05-02T07:45:27;29.03;;;17.43;;
18580;SDS011;9420;50.876;7.012;2023-05-02T07:47:54;34.20;;;19.37;;
18580;SDS011;9420;50.876;7.012;2023-05-02T07:50:21;30.93;;;19.57;;
18580;SDS011;9420;50.876;7.012;2023-05-02T07:52:50;33.53;;;21.43;;
18580;SDS011;9420;50.876;7.012;2023-05-02T07:55:18;30.87;;;20.83;;
18580;SDS011;9420;50.876;7.012;2023-05-02T07:57:45;30.30;;;20.43;;
18580;SDS011;9420;50.876;7.012;2023-05-02T08:00:13;32.70;;;19.70;;
18580;SDS011;9420;50.876;7.012;2023-05-02T08:02:41;30.53;;;20.90;;
18580;SDS011;9420;50.876;7.012;2023-05-02T08:05:09;26.83;;;18.90;;
18580;SDS011;9420;50.876;7.012;2023-05-02T08:07:36;24.10;;;15.90;;
18580;SDS011;9420;50.876;7.012;2023-05-02T08:10:03;26.23;;;14.90;;
18580;SDS011;9420;50.876;7.012;2023-05-02T08:12:38;22.80;;;15.07;;
18580;SDS011;9420;50.876;7.012;2023-05-02T08:15:07;26.33;;;15.03;;
18580;SDS011;9420;50.876;7.012;2023-05-02T08:17:37;21.50;;;14.00;;
18580;SDS011;9420;50.876;7.012;2023-05-02T08:20:05;28.13;;;17.67;;
18580;SDS011;9420;50.876;7.012;2023-05-02T08:22:33;25.77;;;16.77;;
18580;SDS011;9420;50.876;7.012;2023-05-02T08:25:00;27.73;;;15.97;;
18580;SDS011;9420;50.876;7.012;2023-05-02T08:27:27;25.53;;;15.97;;
18580;SDS011;9420;50.876;7.012;2023-05-02T08:29:56;24.10;;;15.67;;
18580;SDS011;9420;50.876;7.012;2023-05-02T08:32:23;23.87;;;14.77;;
18580;SDS011;9420;50.876;7.012;2023-05-02T08:34:53;33.97;;;19.53;;
18580;SDS011;9420;50.876;7.012;2023-05-02T08:37:21;29.60;;;18.40;;
18580;SDS011;9420;50.876;7.012;2023-05-02T08:39:48;28.03;;;16.60;;
18580;SDS011;9420;50.876;7.012;2023-05-02T08:42:15;25.80;;;14.93;;
18580;SDS011;9420;50.876;7.012;2023-05-02T08:44:44;24.70;;;14.53;;
18580;SDS011;9420;50.876;7.012;2023-05-02T08:47:13;20.00;;;13.57;;
18580;SDS011;9420;50.876;7.012;2023-05-02T08:49:43;25.60;;;15.53;;
18580;SDS011;9420;50.876;7.012;2023-05-02T08:52:12;21.80;;;14.07;;
18580;SDS011;9420;50.876;7.012;2023-05-02T08:54:41;23.53;;;13.53;;
18580;SDS011;9420;50.876;7.012;2023-05-02T08:57:10;31.30;;;15.30;;
18580;SDS011;9420;50.876;7.012;2023-05-02T08:59:37;18.73;;;13.53;;
18580;SDS011;9420;50.876;7.012;2023-05-02T09:02:06;22.97;;;14.43;;
18580;SDS011;9420;50.876;7.012;2023-05-02T09:04:46;17.77;;;11.03;;
18580;SDS011;9420;50.876;7.012;2023-05-02T09:07:19;21.43;;;12.23;;
18580;SDS011;9420;50.876;7.012;2023-05-02T09:09:47;19.30;;;12.10;;
18580;SDS011;9420;50.876;7.012;2023-05-02T09:12:14;14.90;;;9.67;;
18580;SDS011;9420;50.876;7.012;2023-05-02T09:14:42;13.37;;;8.93;;
18580;SDS011;9420;50.876;7.012;2023-05-02T09:17:09;13.40;;;7.77;;
18580;SDS011;9420;50.876;7.012;2023-05-02T09:19:36;13.10;;;7.63;;
18580;SDS011;9420;50.876;7.012;2023-05-02T09:22:05;8.93;;;5.47;;
18580;SDS011;9420;50.876;7.012;2023-05-02T09:24:32;8.20;;;4.07;;
18580;SDS011;9420;50.876;7.012;2023-05-02T09:27:00;10.70;;;3.30;;
18580;SDS011;9420;50.876;7.012;2023-05-02T09:29:28;9.40;;;3.40;;
18580;SDS011;9420;50.876;7.012;2023-05-02T09:31:59;9.53;;;3.00;;
18580;SDS011;9420;50.876;7.012;2023-05-02T09:34:27;12.90;;;6.60;;
18580;SDS011;9420;50.876;7.012;2023-05-02T09:36:55;11.00;;;6.27;;
18580;SDS011;9420;50.876;7.012;2023-05-02T09:39:25;10.73;;;5.80;;
18580;SDS011;9420;50.876;7.012;2023-05-02T09:41:54;9.47;;;6.77;;
18580;SDS011;9420;50.876;7.012;2023-05-02T09:44:23;10.93;;;7.73;;
18580;SDS011;9420;50.876;7.012;2023-05-02T09:46:52;15.13;;;7.93;;
18580;SDS011;9420;50.876;7.012;2023-05-02T09:49:37;14.00;;;8.57;;
18580;SDS011;9420;50.876;7.012;2023-05-02T09:52:09;13.60;;;8.90;;
18580;SDS011;9420;50.876;7.012;2023-05-02T09:54:39;18.23;;;9.23;;
18580;SDS011;9420;50.876;7.012;2023-05-02T09:57:06;17.50;;;9.90;;
18580;SDS011;9420;50.876;7.012;2023-05-02T09:59:34;16.17;;;9.33;;
18580;SDS011;9420;50.876;7.012;2023-05-02T10:02:03;15.10;;;9.10;;
18580;SDS011;9420;50.876;7.012;2023-05-02T10:04:34;13.37;;;8.77;;
18580;SDS011;9420;50.876;7.012;2023-05-02T10:07:02;20.80;;;9.30;;
18580;SDS011;9420;50.876;7.012;2023-05-02T10:09:30;15.40;;;10.43;;
18580;SDS011;9420;50.876;7.012;2023-05-02T10:12:02;16.57;;;10.07;;
18580;SDS011;9420;50.876;7.012;2023-05-02T10:14:34;16.87;;;10.20;;
18580;SDS011;9420;50.876;7.012;2023-05-02T10:17:08;17.00;;;8.83;;
18580;SDS011;9420;50.876;7.012;2023-05-02T10:19:44;13.63;;;9.37;;
18580;SDS011;9420;50.876;7.012;2023-05-02T10:22:20;13.60;;;8.73;;
18580;SDS011;9420;50.876;7.012;2023-05-02T10:24:49;14.80;;;10.30;;
18580;SDS011;9420;50.876;7.012;2023-05-02T10:27:19;17.17;;;10.57;;
18580;SDS011;9420;50.876;7.012;2023-05-02T10:29:47;10.20;;;8.70;;
18580;SDS011;9420;50.876;7.012;2023-05-02T10:32:17;10.53;;;9.10;;
18580;SDS011;9420;50.876;7.012;2023-05-02T10:34:48;11.30;;;8.63;;
18580;SDS011;9420;50.876;7.012;2023-05-02T10:37:19;14.17;;;8.80;;
18580;SDS011;9420;50.876;7.012;2023-05-02T10:39:46;9.87;;;8.17;;
18580;SDS011;9420;50.876;7.012;2023-05-02T10:42:13;16.70;;;9.20;;
18580;SDS011;9420;50.876;7.012;2023-05-02T10:44:44;16.30;;;9.13;;
18580;SDS011;9420;50.876;7.012;2023-05-02T10:47:19;10.83;;;8.13;;
18580;SDS011;9420;50.876;7.012;2023-05-02T10:49:50;13.27;;;7.43;;
18580;SDS011;9420;50.876;7.012;2023-05-02T10:52:27;9.17;;;7.23;;
18580;SDS011;9420;50.876;7.012;2023-05-02T10:55:12;10.57;;;8.00;;
18580;SDS011;9420;50.876;7.012;2023-05-02T11:00:47;13.60;;;6.77;;
18580;SDS011;9420;50.876;7.012;2023-05-02T11:03:20;18.73;;;7.20;;
18580;SDS011;9420;50.876;7.012;2023-05-02T11:06:20;11.33;;;6.57;;
18580;SDS011;9420;50.876;7.012;2023-05-02T11:08:48;11.33;;;5.97;;
18580;SDS011;9420;50.876;7.012;2023-05-02T11:14:06;13.70;;;6.27;;
18580;SDS011;9420;50.876;7.012;2023-05-02T11:25:51;8.30;;;5.80;;
18580;SDS011;9420;50.876;7.012;2023-05-02T11:28:40;6.83;;;5.33;;
18580;SDS011;9420;50.876;7.012;2023-05-02T11:34:24;11.33;;;6.33;;
18580;SDS011;9420;50.876;7.012;2023-05-02T11:36:51;13.23;;;6.97;;
18580;SDS011;9420;50.876;7.012;2023-05-02T11:39:18;8.60;;;6.93;;
18580;SDS011;9420;50.876;7.012;2023-05-02T11:41:47;8.33;;;6.97;;
18580;SDS011;9420;50.876;7.012;2023-05-02T11:44:15;10.80;;;7.00;;
18580;SDS011;9420;50.876;7.012;2023-05-02T11:46:43;15.27;;;6.30;;
18580;SDS011;9420;50.876;7.012;2023-05-02T11:49:11;9.73;;;6.43;;
18580;SDS011;9420;50.876;7.012;2023-05-02T11:51:39;9.47;;;6.17;;
18580;SDS011;9420;50.876;7.012;2023-05-02T11:54:07;11.07;;;8.17;;
18580;SDS011;9420;50.876;7.012;2023-05-02T11:56:34;10.30;;;9.13;;
18580;SDS011;9420;50.876;7.012;2023-05-02T11:59:02;10.57;;;8.80;;
18580;SDS011;9420;50.876;7.012;2023-05-02T12:01:31;11.60;;;8.03;;
18580;SDS011;9420;50.876;7.012;2023-05-02T12:04:02;8.23;;;7.33;;
18580;SDS011;9420;50.876;7.012;2023-05-02T12:06:31;13.73;;;7.77;;
18580;SDS011;9420;50.876;7.012;2023-05-02T12:09:09;12.83;;;8.20;;
18580;SDS011;9420;50.876;7.012;2023-05-02T12:11:40;10.20;;;7.43;;
18580;SDS011;9420;50.876;7.012;2023-05-02T12:14:07;15.57;;;9.57;;
18580;SDS011;9420;50.876;7.012;2023-05-02T12:16:35;11.77;;;10.57;;
18580;SDS011;9420;50.876;7.012;2023-05-02T12:19:02;11.20;;;8.83;;
18580;SDS011;9420;50.876;7.012;2023-05-02T12:21:29;14.17;;;7.53;;
18580;SDS011;9420;50.876;7.012;2023-05-02T12:23:58;11.30;;;8.03;;
18580;SDS011;9420;50.876;7.012;2023-05-02T12:26:28;12.30;;;7.20;;
18580;SDS011;9420;50.876;7.012;2023-05-02T12:28:57;11.27;;;7.23;;
18580;SDS011;9420;50.876;7.012;2023-05-02T12:31:26;10.57;;;6.50;;
18580;SDS011;9420;50.876;7.012;2023-05-02T12:33:56;6.43;;;5.40;;
18580;SDS011;9420;50.876;7.012;2023-05-02T12:36:24;8.47;;;4.40;;
18580;SDS011;9420;50.876;7.012;2023-05-02T12:38:54;8.33;;;4.00;;
18580;SDS011;9420;50.876;7.012;2023-05-02T12:41:37;5.50;;;3.57;;
18580;SDS011;9420;50.876;7.012;2023-05-02T12:44:07;6.47;;;4.23;;
18580;SDS011;9420;50.876;7.012;2023-05-02T12:46:34;9.43;;;4.80;;
18580;SDS011;9420;50.876;7.012;2023-05-02T12:49:02;9.03;;;4.30;;
18580;SDS011;9420;50.876;7.012;2023-05-02T12:51:32;10.93;;;4.97;;
18580;SDS011;9420;50.876;7.012;2023-05-02T12:54:00;8.13;;;4.83;;
18580;SDS011;9420;50.876;7.012;2023-05-02T12:56:27;9.70;;;4.73;;
18580;SDS011;9420;50.876;7.012;2023-05-02T12:58:57;8.50;;;4.10;;
18580;SDS011;9420;50.876;7.012;2023-05-02T13:01:28;7.90;;;4.43;;
18580;SDS011;9420;50.876;7.012;2023-05-02T13:03:57;8.77;;;4.67;;
18580;SDS011;9420;50.876;7.012;2023-05-02T13:06:24;7.20;;;5.20;;
18580;SDS011;9420;50.876;7.012;2023-05-02T13:08:51;5.53;;;3.70;;
18580;SDS011;9420;50.876;7.012;2023-05-02T13:11:18;8.30;;;4.37;;
18580;SDS011;9420;50.876;7.012;2023-05-02T13:13:45;10.07;;;4.43;;
18580;SDS011;9420;50.876;7.012;2023-05-02T13:16:14;8.63;;;4.90;;
18580;SDS011;9420;50.876;7.012;2023-05-02T13:18:41;10.57;;;5.77;;
18580;SDS011;9420;50.876;7.012;2023-05-02T13:21:08;11.13;;;5.23;;
18580;SDS011;9420;50.876;7.012;2023-05-02T13:23:35;7.73;;;4.87;;
18580;SDS011;9420;50.876;7.012;2023-05-02T13:26:03;9.93;;;4.50;;
18580;SDS011;9420;50.876;7.012;2023-05-02T13:28:30;8.87;;;4.23;;
18580;SDS011;9420;50.876;7.012;2023-05-02T13:30:59;11.57;;;5.00;;
18580;SDS011;9420;50.876;7.012;2023-05-02T13:33:28;8.17;;;4.30;;
18580;SDS011;9420;50.876;7.012;2023-05-02T13:35:55;10.70;;;4.30;;
18580;SDS011;9420;50.876;7.012;2023-05-02T13:38:22;10.10;;;4.60;;
18580;SDS011;9420;50.876;7.012;2023-05-02T13:40:49;7.43;;;4.27;;
18580;SDS011;9420;50.876;7.012;2023-05-02T13:43:16;7.17;;;4.00;;
18580;SDS011;9420;50.876;7.012;2023-05-02T13:45:43;6.07;;;4.13;;
18580;SDS011;9420;50.876;7.012;2023-05-02T13:48:11;10.60;;;4.43;;
18580;SDS011;9420;50.876;7.012;2023-05-02T13:50:40;7.17;;;3.37;;
18580;SDS011;9420;50.876;7.012;2023-05-02T13:53:07;9.00;;;3.97;;
18580;SDS011;9420;50.876;7.012;2023-05-02T13:55:35;7.37;;;3.70;;
18580;SDS011;9420;50.876;7.012;2023-05-02T13:58:02;16.30;;;4.30;;
18580;SDS011;9420;50.876;7.012;2023-05-02T14:00:29;7.60;;;4.20;;
18580;SDS011;9420;50.876;7.012;2023-05-02T14:02:56;7.83;;;4.37;;
18580;SDS011;9420;50.876;7.012;2023-05-02T14:05:24;9.00;;;4.67;;
18580;SDS011;9420;50.876;7.012;2023-05-02T14:07:52;10.77;;;4.30;;
18580;SDS011;9420;50.876;7.012;2023-05-02T14:10:19;11.23;;;4.67;;
18580;SDS011;9420;50.876;7.012;2023-05-02T14:12:46;10.73;;;3.80;;
18580;SDS011;9420;50.876;7.012;2023-05-02T14:15:13;6.43;;;3.63;;
18580;SDS011;9420;50.876;7.012;2023-05-02T14:17:41;13.63;;;3.77;;
18580;SDS011;9420;50.876;7.012;2023-05-02T14:20:08;6.33;;;3.00;;
18580;SDS011;9420;50.876;7.012;2023-05-02T14:22:36;6.60;;;3.70;;
18580;SDS011;9420;50.876;7.012;2023-05-02T14:25:05;7.47;;;3.47;;
18580;SDS011;9420;50.876;7.012;2023-05-02T14:27:33;11.03;;;4.87;;
18580;SDS011;9420;50.876;7.012;2023-05-02T14:30:00;5.80;;;3.67;;
18580;SDS011;9420;50.876;7.012;2023-05-02T14:32:27;8.40;;;3.78;;
18580;SDS011;9420;50.876;7.012;2023-05-02T14:34:55;8.23;;;3.78;;
18580;SDS011;9420;50.876;7.012;2023-05-02T14:37:22;4.85;;;3.25;;
18580;SDS011;9420;50.876;7.012;2023-05-02T14:39:49;10.32;;;3.83;;
18580;SDS011;9420;50.876;7.012;2023-05-02T14:42:21;8.70;;;4.05;;
18580;SDS011;9420;50.876;7.012;2023-05-02T14:44:48;9.13;;;3.42;;
18580;SDS011;9420;50.876;7.012;2023-05-02T14:47:15;8.55;;;4.00;;
18580;SDS011;9420;50.876;7.012;2023-05-02T14:49:42;6.30;;;3.55;;
18580;SDS011;9420;50.876;7.012;2023-05-02T14:52:10;6.40;;;3.65;;
18580;SDS011;9420;50.876;7.012;2023-05-02T14:54:37;6.03;;;4.05;;
18580;SDS011;9420;50.876;7.012;2023-05-02T14:57:04;7.35;;;4.03;;
18580;SDS011;9420;50.876;7.012;2023-05-02T14:59:33;6.03;;;3.40;;
18580;SDS011;9420;50.876;7.012;2023-05-02T15:02:02;16.77;;;3.88;;
18580;SDS011;9420;50.876;7.012;2023-05-02T15:04:30;6.65;;;3.72;;
18580;SDS011;9420;50.876;7.012;2023-05-02T15:06:58;7.72;;;3.60;;
18580;SDS011;9420;50.876;7.012;2023-05-02T15:09:25;6.68;;;3.38;;
18580;SDS011;9420;50.876;7.012;2023-05-02T15:11:53;8.18;;;3.45;;